sensor_id;sensor_type;location;lat;lon;timestamp;P1;durP1;ratioP1;P2;durP2;ratioP2
10633;SDS011;5365;51.640;8.106;2023-05-10T00:02:59;232.90;;;101.77;;
10633;SDS011;5365;51.640;8.106;2023-05-10T00:06:00;234.33;;;101.37;;
10633;SDS011;5365;51.640;8.106;2023-05-10T00:09:00;230.83;;;93.93;;
10633;SDS011;5365;51.640;8.106;2023-05-10T00:12:00;232.50;;;99.67;;
10633;SDS011;5365;51.640;8.106;2023-05-10T00:15:01;234.57;;;95.67;;
10633;SDS011;5365;51.640;8.106;2023-05-10T00:18:01;242.00;;;116.13;;
10633;SDS011;5365;51.640;8.106;2023-05-10T00:21:01;295.67;;;246.47;;
10633;SDS011;5365;51.640;8.106;2023-05-10T00:24:01;242.73;;;116.23;;
10633;SDS011;5365;51.640;8.106;2023-05-10T00:27:02;235.40;;;105.50;;
10633;SDS011;5365;51.640;8.106;2023-05-10T00:30:04;233.20;;;105.13;;
10633;SDS011;5365;51.640;8.106;2023-05-10T00:33:04;240.23;;;106.23;;
10633;SDS011;5365;51.640;8.106;2023-05-10T00:36:04;236.60;;;103.60;;
10633;SDS011;5365;51.640;8.106;2023-05-10T00:39:07;237.03;;;103.80;;
10633;SDS011;5365;51.640;8.106;2023-05-10T00:42:07;242.07;;;116.07;;
10633;SDS011;5365;51.640;8.106;2023-05-10T00:45:08;242.88;;;115.13;;
10633;SDS011;5365;51.640;8.106;2023-05-10T00:48:08;240.70;;;107.37;;
10633;SDS011;5365;51.640;8.106;2023-05-10T00:51:09;277.67;;;184.00;;
10633;SDS011;5365;51.640;8.106;2023-05-10T00:54:14;231.73;;;96.83;;
10633;SDS011;5365;51.640;8.106;2023-05-10T00:57:14;232.23;;;90.70;;
10633;SDS011;5365;51.640;8.106;2023-05-10T01:00:14;232.50;;;94.50;;
10633;SDS011;5365;51.640;8.106;2023-05-10T01:03:18;233.50;;;93.73;;
10633;SDS011;5365;51.640;8.106;2023-05-10T01:06:18;234.83;;;96.30;;
10633;SDS011;5365;51.640;8.106;2023-05-10T01:09:18;235.60;;;96.03;;
10633;SDS011;5365;51.640;8.106;2023-05-10T01:12:19;236.73;;;98.20;;
10633;SDS011;5365;51.640;8.106;2023-05-10T01:15:19;238.53;;;102.43;;
10633;SDS011;5365;51.640;8.106;2023-05-10T01:18:20;232.57;;;94.97;;
10633;SDS011;5365;51.640;8.106;2023-05-10T01:30:58;227.10;;;88.97;;
10633;SDS011;5365;51.640;8.106;2023-05-10T01:34:07;226.37;;;89.43;;
10633;SDS011;5365;51.640;8.106;2023-05-10T01:37:09;231.20;;;93.70;;
10633;SDS011;5365;51.640;8.106;2023-05-10T01:40:57;223.50;;;87.40;;
10633;SDS011;5365;51.640;8.106;2023-05-10T01:43:33;230.53;;;96.33;;
10633;SDS011;5365;51.640;8.106;2023-05-10T01:46:37;253.63;;;138.67;;
10633;SDS011;5365;51.640;8.106;2023-05-10T01:49:39;250.93;;;135.23;;
10633;SDS011;5365;51.640;8.106;2023-05-10T01:52:42;234.47;;;101.77;;
10633;SDS011;5365;51.640;8.106;2023-05-10T01:55:47;224.93;;;90.33;;
10633;SDS011;5365;51.640;8.106;2023-05-10T01:58:48;225.77;;;91.37;;
10633;SDS011;5365;51.640;8.106;2023-05-10T02:01:49;227.60;;;89.27;;
10633;SDS011;5365;51.640;8.106;2023-05-10T02:04:51;226.47;;;87.87;;
10633;SDS011;5365;51.640;8.106;2023-05-10T02:07:51;226.87;;;88.47;;
10633;SDS011;5365;51.640;8.106;2023-05-10T02:10:52;226.43;;;89.27;;
10633;SDS011;5365;51.640;8.106;2023-05-10T02:13:53;221.33;;;81.83;;
10633;SDS011;5365;51.640;8.106;2023-05-10T02:16:54;228.00;;;89.47;;
10633;SDS011;5365;51.640;8.106;2023-05-10T02:19:55;222.77;;;85.80;;
10633;SDS011;5365;51.640;8.106;2023-05-10T02:22:56;227.67;;;89.80;;
10633;SDS011;5365;51.640;8.106;2023-05-10T02:25:57;224.97;;;86.37;;
10633;SDS011;5365;51.640;8.106;2023-05-10T02:28:58;227.57;;;91.07;;
10633;SDS011;5365;51.640;8.106;2023-05-10T02:32:00;230.53;;;96.00;;
10633;SDS011;5365;51.640;8.106;2023-05-10T02:35:01;231.00;;;89.97;;
10633;SDS011;5365;51.640;8.106;2023-05-10T02:38:02;228.33;;;86.70;;
10633;SDS011;5365;51.640;8.106;2023-05-10T02:41:04;232.90;;;92.37;;
10633;SDS011;5365;51.640;8.106;2023-05-10T02:44:05;226.43;;;86.07;;
10633;SDS011;5365;51.640;8.106;2023-05-10T02:47:06;233.23;;;94.00;;
10633;SDS011;5365;51.640;8.106;2023-05-10T02:50:07;229.17;;;87.33;;
10633;SDS011;5365;51.640;8.106;2023-05-10T02:53:09;234.50;;;93.40;;
10633;SDS011;5365;51.640;8.106;2023-05-10T02:56:15;234.73;;;86.63;;
10633;SDS011;5365;51.640;8.106;2023-05-10T02:59:17;235.73;;;92.27;;
10633;SDS011;5365;51.640;8.106;2023-05-10T03:02:17;232.77;;;93.50;;
10633;SDS011;5365;51.640;8.106;2023-05-10T03:05:17;238.07;;;95.73;;
10633;SDS011;5365;51.640;8.106;2023-05-10T03:08:17;234.27;;;95.50;;
10633;SDS011;5365;51.640;8.106;2023-05-10T03:21:03;236.53;;;96.13;;
10633;SDS011;5365;51.640;8.106;2023-05-10T03:24:07;239.60;;;106.80;;
10633;SDS011;5365;51.640;8.106;2023-05-10T03:27:07;248.57;;;127.50;;
10633;SDS011;5365;51.640;8.106;2023-05-10T03:30:08;241.00;;;109.90;;
10633;SDS011;5365;51.640;8.106;2023-05-10T03:33:09;234.70;;;101.80;;
10633;SDS011;5365;51.640;8.106;2023-05-10T03:36:09;287.93;;;186.93;;
10633;SDS011;5365;51.640;8.106;2023-05-10T03:39:09;250.30;;;129.07;;
10633;SDS011;5365;51.640;8.106;2023-05-10T03:42:10;236.00;;;102.33;;
10633;SDS011;5365;51.640;8.106;2023-05-10T03:45:11;239.07;;;108.30;;
10633;SDS011;5365;51.640;8.106;2023-05-10T03:48:12;235.47;;;99.77;;
10633;SDS011;5365;51.640;8.106;2023-05-10T03:51:13;243.63;;;117.87;;
10633;SDS011;5365;51.640;8.106;2023-05-10T03:54:13;264.67;;;165.73;;
10633;SDS011;5365;51.640;8.106;2023-05-10T03:57:13;251.77;;;131.80;;
10633;SDS011;5365;51.640;8.106;2023-05-10T04:00:14;243.30;;;114.97;;
10633;SDS011;5365;51.640;8.106;2023-05-10T04:03:14;253.57;;;127.53;;
10633;SDS011;5365;51.640;8.106;2023-05-10T04:06:14;266.17;;;167.18;;
10633;SDS011;5365;51.640;8.106;2023-05-10T04:09:14;247.43;;;116.57;;
10633;SDS011;5365;51.640;8.106;2023-05-10T04:12:15;251.57;;;133.80;;
10633;SDS011;5365;51.640;8.106;2023-05-10T04:15:15;253.73;;;132.90;;
10633;SDS011;5365;51.640;8.106;2023-05-10T04:18:15;248.30;;;125.50;;
10633;SDS011;5365;51.640;8.106;2023-05-10T04:21:17;249.70;;;126.10;;
10633;SDS011;5365;51.640;8.106;2023-05-10T04:24:17;241.20;;;108.00;;
10633;SDS011;5365;51.640;8.106;2023-05-10T04:27:17;254.48;;;135.98;;
10633;SDS011;5365;51.640;8.106;2023-05-10T04:30:17;259.07;;;136.57;;
10633;SDS011;5365;51.640;8.106;2023-05-10T04:33:17;246.60;;;116.37;;
10633;SDS011;5365;51.640;8.106;2023-05-10T04:36:18;238.80;;;105.10;;
10633;SDS011;5365;51.640;8.106;2023-05-10T04:39:18;243.63;;;114.23;;
10633;SDS011;5365;51.640;8.106;2023-05-10T04:42:18;243.00;;;114.63;;
10633;SDS011;5365;51.640;8.106;2023-05-10T04:45:18;245.67;;;116.03;;
10633;SDS011;5365;51.640;8.106;2023-05-10T04:48:18;263.40;;;153.63;;
10633;SDS011;5365;51.640;8.106;2023-05-10T04:51:19;293.80;;;211.07;;
10633;SDS011;5365;51.640;8.106;2023-05-10T04:54:20;248.87;;;127.53;;
10633;SDS011;5365;51.640;8.106;2023-05-10T04:57:20;255.33;;;137.03;;
10633;SDS011;5365;51.640;8.106;2023-05-10T05:00:21;256.17;;;137.97;;
10633;SDS011;5365;51.640;8.106;2023-05-10T05:03:21;242.70;;;108.40;;
10633;SDS011;5365;51.640;8.106;2023-05-10T05:06:22;285.57;;;183.87;;
10633;SDS011;5365;51.640;8.106;2023-05-10T05:09:22;237.63;;;106.27;;
10633;SDS011;5365;51.640;8.106;2023-05-10T05:12:25;239.85;;;107.07;;
10633;SDS011;5365;51.640;8.106;2023-05-10T05:15:25;276.13;;;191.87;;
10633;SDS011;5365;51.640;8.106;2023-05-10T05:18:26;266.57;;;164.37;;
10633;SDS011;5365;51.640;8.106;2023-05-10T05:21:26;239.18;;;107.07;;
10633;SDS011;5365;51.640;8.106;2023-05-10T05:24:27;239.97;;;108.83;;
10633;SDS011;5365;51.640;8.106;2023-05-10T05:27:27;239.75;;;106.05;;
10633;SDS011;5365;51.640;8.106;2023-05-10T05:30:27;242.60;;;111.50;;
10633;SDS011;5365;51.640;8.106;2023-05-10T05:33:28;245.83;;;118.77;;
10633;SDS011;5365;51.640;8.106;2023-05-10T05:36:28;238.20;;;106.27;;
10633;SDS011;5365;51.640;8.106;2023-05-10T05:39:28;274.80;;;176.67;;
10633;SDS011;5365;51.640;8.106;2023-05-10T05:42:28;285.50;;;199.88;;
10633;SDS011;5365;51.640;8.106;2023-05-10T05:45:29;299.93;;;227.90;;
10633;SDS011;5365;51.640;8.106;2023-05-10T05:48:29;282.00;;;206.80;;
10633;SDS011;5365;51.640;8.106;2023-05-10T05:51:30;271.83;;;167.73;;
10633;SDS011;5365;51.640;8.106;2023-05-10T05:54:31;250.53;;;120.73;;
10633;SDS011;5365;51.640;8.106;2023-05-10T05:57:31;258.23;;;132.87;;
10633;SDS011;5365;51.640;8.106;2023-05-10T06:00:31;256.60;;;132.93;;
10633;SDS011;5365;51.640;8.106;2023-05-10T06:03:31;263.40;;;129.63;;
10633;SDS011;5365;51.640;8.106;2023-05-10T06:06:32;256.77;;;132.00;;
10633;SDS011;5365;51.640;8.106;2023-05-10T06:09:32;284.30;;;193.73;;
10633;SDS011;5365;51.640;8.106;2023-05-10T06:12:32;249.20;;;126.70;;
10633;SDS011;5365;51.640;8.106;2023-05-10T06:15:33;249.93;;;113.53;;
10633;SDS011;5365;51.640;8.106;2023-05-10T06:18:33;250.53;;;123.50;;
10633;SDS011;5365;51.640;8.106;2023-05-10T06:21:34;252.43;;;113.23;;
10633;SDS011;5365;51.640;8.106;2023-05-10T06:24:34;250.43;;;123.03;;
10633;SDS011;5365;51.640;8.106;2023-05-10T06:27:34;241.35;;;108.70;;
10633;SDS011;5365;51.640;8.106;2023-05-10T06:30:35;247.70;;;114.43;;
10633;SDS011;5365;51.640;8.106;2023-05-10T06:33:35;253.67;;;126.27;;
10633;SDS011;5365;51.640;8.106;2023-05-10T06:36:36;258.20;;;124.10;;
10633;SDS011;5365;51.640;8.106;2023-05-10T06:39:36;253.70;;;124.40;;
10633;SDS011;5365;51.640;8.106;2023-05-10T06:42:36;260.33;;;131.30;;
10633;SDS011;5365;51.640;8.106;2023-05-10T06:45:37;287.87;;;191.50;;
10633;SDS011;5365;51.640;8.106;2023-05-10T06:48:37;281.17;;;163.73;;
10633;SDS011;5365;51.640;8.106;2023-05-10T06:51:37;304.07;;;229.30;;
10633;SDS011;5365;51.640;8.106;2023-05-10T06:54:37;280.07;;;174.67;;
10633;SDS011;5365;51.640;8.106;2023-05-10T06:57:37;269.10;;;134.30;;
10633;SDS011;5365;51.640;8.106;2023-05-10T07:00:38;259.88;;;124.22;;
10633;SDS011;5365;51.640;8.106;2023-05-10T07:03:40;269.53;;;128.17;;
10633;SDS011;5365;51.640;8.106;2023-05-10T07:06:40;257.10;;;116.10;;
10633;SDS011;5365;51.640;8.106;2023-05-10T07:09:40;251.77;;;112.00;;
10633;SDS011;5365;51.640;8.106;2023-05-10T07:12:40;260.00;;;107.40;;
10633;SDS011;5365;51.640;8.106;2023-05-10T07:15:41;260.10;;;121.97;;
10633;SDS011;5365;51.640;8.106;2023-05-10T07:18:42;260.27;;;123.10;;
10633;SDS011;5365;51.640;8.106;2023-05-10T07:21:42;253.07;;;115.43;;
10633;SDS011;5365;51.640;8.106;2023-05-10T07:24:43;269.93;;;122.30;;
10633;SDS011;5365;51.640;8.106;2023-05-10T07:27:43;262.17;;;123.90;;
10633;SDS011;5365;51.640;8.106;2023-05-10T07:30:44;259.30;;;111.70;;
10633;SDS011;5365;51.640;8.106;2023-05-10T07:33:44;274.20;;;125.30;;
10633;SDS011;5365;51.640;8.106;2023-05-10T07:36:44;265.40;;;128.50;;
10633;SDS011;5365;51.640;8.106;2023-05-10T07:39:44;257.20;;;113.93;;
10633;SDS011;5365;51.640;8.106;2023-05-10T07:42:45;273.43;;;124.03;;
10633;SDS011;5365;51.640;8.106;2023-05-10T07:45:45;279.43;;;134.63;;
10633;SDS011;5365;51.640;8.106;2023-05-10T07:48:45;279.43;;;128.20;;
10633;SDS011;5365;51.640;8.106;2023-05-10T07:51:46;280.60;;;137.10;;
10633;SDS011;5365;51.640;8.106;2023-05-10T07:54:46;274.57;;;123.80;;
10633;SDS011;5365;51.640;8.106;2023-05-10T07:57:46;276.33;;;130.47;;
10633;SDS011;5365;51.640;8.106;2023-05-10T08:00:46;284.70;;;133.50;;
10633;SDS011;5365;51.640;8.106;2023-05-10T08:03:47;276.27;;;134.13;;
10633;SDS011;5365;51.640;8.106;2023-05-10T08:06:47;262.77;;;122.63;;
10633;SDS011;5365;51.640;8.106;2023-05-10T08:09:47;277.13;;;122.83;;
10633;SDS011;5365;51.640;8.106;2023-05-10T08:12:47;269.45;;;112.60;;
10633;SDS011;5365;51.640;8.106;2023-05-10T08:15:48;283.37;;;127.93;;
10633;SDS011;5365;51.640;8.106;2023-05-10T08:18:48;266.70;;;123.87;;
10633;SDS011;5365;51.640;8.106;2023-05-10T08:21:50;271.67;;;114.93;;
10633;SDS011;5365;51.640;8.106;2023-05-10T08:24:50;259.40;;;104.93;;
10633;SDS011;5365;51.640;8.106;2023-05-10T08:27:51;258.65;;;110.28;;
10633;SDS011;5365;51.640;8.106;2023-05-10T08:30:51;253.13;;;103.20;;
10633;SDS011;5365;51.640;8.106;2023-05-10T08:33:57;264.55;;;108.80;;
10633;SDS011;5365;51.640;8.106;2023-05-10T08:36:57;247.47;;;99.43;;
10633;SDS011;5365;51.640;8.106;2023-05-10T08:39:57;251.10;;;108.60;;
10633;SDS011;5365;51.640;8.106;2023-05-10T08:43:15;242.97;;;99.87;;
10633;SDS011;5365;51.640;8.106;2023-05-10T08:46:16;262.13;;;109.63;;
10633;SDS011;5365;51.640;8.106;2023-05-10T08:49:19;259.87;;;111.30;;
10633;SDS011;5365;51.640;8.106;2023-05-10T08:52:19;257.13;;;108.63;;
10633;SDS011;5365;51.640;8.106;2023-05-10T08:55:20;262.23;;;113.83;;
10633;SDS011;5365;51.640;8.106;2023-05-10T08:58:20;254.57;;;108.53;;
10633;SDS011;5365;51.640;8.106;2023-05-10T09:01:21;257.63;;;107.00;;
10633;SDS011;5365;51.640;8.106;2023-05-10T09:04:21;266.60;;;116.97;;
10633;SDS011;5365;51.640;8.106;2023-05-10T09:07:22;259.00;;;110.10;;
10633;SDS011;5365;51.640;8.106;2023-05-10T09:10:22;262.17;;;116.67;;
10633;SDS011;5365;51.640;8.106;2023-05-10T09:13:23;260.27;;;120.13;;
10633;SDS011;5365;51.640;8.106;2023-05-10T09:16:24;291.27;;;186.90;;
10633;SDS011;5365;51.640;8.106;2023-05-10T09:19:24;341.17;;;261.43;;
10633;SDS011;5365;51.640;8.106;2023-05-10T09:22:24;333.57;;;207.87;;
10633;SDS011;5365;51.640;8.106;2023-05-10T09:25:25;327.33;;;219.57;;
10633;SDS011;5365;51.640;8.106;2023-05-10T09:28:25;342.60;;;249.13;;
10633;SDS011;5365;51.640;8.106;2023-05-10T09:31:42;340.53;;;264.80;;
10633;SDS011;5365;51.640;8.106;2023-05-10T09:34:43;344.40;;;287.63;;
10633;SDS011;5365;51.640;8.106;2023-05-10T09:37:44;336.37;;;263.20;;
10633;SDS011;5365;51.640;8.106;2023-05-10T09:40:52;384.90;;;344.17;;
10633;SDS011;5365;51.640;8.106;2023-05-10T09:43:56;441.83;;;401.13;;
10633;SDS011;5365;51.640;8.106;2023-05-10T09:46:56;420.90;;;380.83;;
10633;SDS011;5365;51.640;8.106;2023-05-10T09:49:57;421.17;;;381.13;;
10633;SDS011;5365;51.640;8.106;2023-05-10T09:53:02;376.70;;;337.97;;
10633;SDS011;5365;51.640;8.106;2023-05-10T09:56:03;409.37;;;370.77;;
10633;SDS011;5365;51.640;8.106;2023-05-10T09:59:03;418.47;;;379.07;;
10633;SDS011;5365;51.640;8.106;2023-05-10T10:02:03;442.00;;;402.30;;
10633;SDS011;5365;51.640;8.106;2023-05-10T10:05:04;439.57;;;400.47;;
10633;SDS011;5365;51.640;8.106;2023-05-10T10:08:06;432.67;;;394.30;;
10633;SDS011;5365;51.640;8.106;2023-05-10T10:11:06;413.00;;;374.60;;
10633;SDS011;5365;51.640;8.106;2023-05-10T10:14:06;450.60;;;411.90;;
10633;SDS011;5365;51.640;8.106;2023-05-10T10:17:07;465.87;;;427.33;;
10633;SDS011;5365;51.640;8.106;2023-05-10T10:20:07;469.57;;;430.63;;
10633;SDS011;5365;51.640;8.106;2023-05-10T10:23:08;330.60;;;296.87;;
10633;SDS011;5365;51.640;8.106;2023-05-10T10:26:08;405.20;;;369.23;;
10633;SDS011;5365;51.640;8.106;2023-05-10T10:32:35;474.70;;;435.20;;
10633;SDS011;5365;51.640;8.106;2023-05-10T10:35:37;417.93;;;378.60;;
10633;SDS011;5365;51.640;8.106;2023-05-10T10:41:57;488.50;;;447.57;;
10633;SDS011;5365;51.640;8.106;2023-05-10T10:45:13;427.37;;;388.27;;
10633;SDS011;5365;51.640;8.106;2023-05-10T10:48:22;447.43;;;408.50;;
10633;SDS011;5365;51.640;8.106;2023-05-10T10:51:23;424.47;;;385.73;;
10633;SDS011;5365;51.640;8.106;2023-05-10T10:54:27;450.03;;;409.93;;
10633;SDS011;5365;51.640;8.106;2023-05-10T10:57:28;439.90;;;400.10;;
10633;SDS011;5365;51.640;8.106;2023-05-10T11:00:30;452.63;;;413.87;;
10633;SDS011;5365;51.640;8.106;2023-05-10T11:03:31;462.40;;;422.83;;
10633;SDS011;5365;51.640;8.106;2023-05-10T11:06:31;497.43;;;457.13;;
10633;SDS011;5365;51.640;8.106;2023-05-10T11:09:38;300.50;;;249.83;;
10633;SDS011;5365;51.640;8.106;2023-05-10T11:12:50;299.07;;;247.87;;
10633;SDS011;5365;51.640;8.106;2023-05-10T11:15:50;394.57;;;356.83;;
10633;SDS011;5365;51.640;8.106;2023-05-10T11:25:04;524.37;;;483.37;;
10633;SDS011;5365;51.640;8.106;2023-05-10T11:28:05;489.20;;;448.70;;
10633;SDS011;5365;51.640;8.106;2023-05-10T11:31:06;451.43;;;410.77;;
10633;SDS011;5365;51.640;8.106;2023-05-10T11:34:06;523.27;;;482.40;;
10633;SDS011;5365;51.640;8.106;2023-05-10T11:37:06;398.20;;;360.80;;
10633;SDS011;5365;51.640;8.106;2023-05-10T11:40:07;288.87;;;234.77;;
10633;SDS011;5365;51.640;8.106;2023-05-10T11:43:09;315.33;;;281.53;;
10633;SDS011;5365;51.640;8.106;2023-05-10T11:46:12;304.77;;;271.30;;
10633;SDS011;5365;51.640;8.106;2023-05-10T11:49:12;324.03;;;289.40;;
10633;SDS011;5365;51.640;8.106;2023-05-10T11:52:13;327.63;;;293.60;;
10633;SDS011;5365;51.640;8.106;2023-05-10T11:55:13;317.93;;;285.10;;
10633;SDS011;5365;51.640;8.106;2023-05-10T11:58:13;338.00;;;304.90;;
10633;SDS011;5365;51.640;8.106;2023-05-10T12:01:13;355.07;;;320.57;;
10633;SDS011;5365;51.640;8.106;2023-05-10T12:04:14;360.40;;;325.00;;
10633;SDS011;5365;51.640;8.106;2023-05-10T12:07:14;346.50;;;313.00;;
10633;SDS011;5365;51.640;8.106;2023-05-10T12:10:14;356.77;;;323.30;;
10633;SDS011;5365;51.640;8.106;2023-05-10T12:13:15;364.17;;;329.67;;
10633;SDS011;5365;51.640;8.106;2023-05-10T12:16:16;393.63;;;357.93;;
10633;SDS011;5365;51.640;8.106;2023-05-10T12:19:19;369.67;;;335.27;;
10633;SDS011;5365;51.640;8.106;2023-05-10T12:22:22;369.90;;;334.67;;
10633;SDS011;5365;51.640;8.106;2023-05-10T12:25:23;381.87;;;346.83;;
10633;SDS011;5365;51.640;8.106;2023-05-10T12:28:23;443.43;;;405.53;;
10633;SDS011;5365;51.640;8.106;2023-05-10T12:31:24;373.00;;;336.20;;
10633;SDS011;5365;51.640;8.106;2023-05-10T12:34:29;295.33;;;245.15;;
10633;SDS011;5365;51.640;8.106;2023-05-10T12:37:30;352.03;;;316.17;;
10633;SDS011;5365;51.640;8.106;2023-05-10T12:40:30;312.97;;;278.60;;
10633;SDS011;5365;51.640;8.106;2023-05-10T12:43:31;502.20;;;461.57;;
10633;SDS011;5365;51.640;8.106;2023-05-10T12:46:31;326.30;;;291.70;;
10633;SDS011;5365;51.640;8.106;2023-05-10T12:49:32;733.47;;;687.03;;
10633;SDS011;5365;51.640;8.106;2023-05-10T12:52:32;745.17;;;698.27;;
10633;SDS011;5365;51.640;8.106;2023-05-10T12:55:32;770.73;;;723.87;;
10633;SDS011;5365;51.640;8.106;2023-05-10T12:58:34;778.13;;;730.83;;
10633;SDS011;5365;51.640;8.106;2023-05-10T13:01:34;718.50;;;672.80;;
10633;SDS011;5365;51.640;8.106;2023-05-10T13:04:34;609.03;;;566.23;;
10633;SDS011;5365;51.640;8.106;2023-05-10T13:07:34;422.27;;;384.57;;
10633;SDS011;5365;51.640;8.106;2023-05-10T13:10:35;342.63;;;307.17;;
10633;SDS011;5365;51.640;8.106;2023-05-10T13:13:35;330.37;;;295.40;;
10633;SDS011;5365;51.640;8.106;2023-05-10T13:16:35;321.90;;;287.10;;
10633;SDS011;5365;51.640;8.106;2023-05-10T13:19:35;319.07;;;283.23;;
10633;SDS011;5365;51.640;8.106;2023-05-10T13:22:35;314.77;;;258.27;;
10633;SDS011;5365;51.640;8.106;2023-05-10T13:25:36;359.63;;;322.57;;
10633;SDS011;5365;51.640;8.106;2023-05-10T13:28:36;338.53;;;295.47;;
10633;SDS011;5365;51.640;8.106;2023-05-10T13:31:38;331.70;;;278.00;;
10633;SDS011;5365;51.640;8.106;2023-05-10T13:34:38;370.93;;;333.00;;
10633;SDS011;5365;51.640;8.106;2023-05-10T13:37:39;492.03;;;451.30;;
10633;SDS011;5365;51.640;8.106;2023-05-10T13:40:39;461.17;;;421.40;;
10633;SDS011;5365;51.640;8.106;2023-05-10T13:43:39;471.57;;;430.90;;
10633;SDS011;5365;51.640;8.106;2023-05-10T13:46:40;350.57;;;314.27;;
10633;SDS011;5365;51.640;8.106;2023-05-10T13:49:40;317.00;;;263.73;;
10633;SDS011;5365;51.640;8.106;2023-05-10T13:52:40;304.67;;;239.97;;
10633;SDS011;5365;51.640;8.106;2023-05-10T13:55:41;300.67;;;235.93;;
10633;SDS011;5365;51.640;8.106;2023-05-10T13:58:41;303.57;;;224.70;;
10633;SDS011;5365;51.640;8.106;2023-05-10T14:01:41;304.67;;;242.77;;
10633;SDS011;5365;51.640;8.106;2023-05-10T14:04:42;302.03;;;241.97;;
10633;SDS011;5365;51.640;8.106;2023-05-10T14:07:42;298.93;;;248.13;;
10633;SDS011;5365;51.640;8.106;2023-05-10T14:10:43;306.60;;;260.23;;
10633;SDS011;5365;51.640;8.106;2023-05-10T14:13:43;302.40;;;263.33;;
10633;SDS011;5365;51.640;8.106;2023-05-10T14:16:43;290.47;;;224.20;;
10633;SDS011;5365;51.640;8.106;2023-05-10T14:19:44;304.40;;;270.50;;
10633;SDS011;5365;51.640;8.106;2023-05-10T14:22:44;298.73;;;258.13;;
10633;SDS011;5365;51.640;8.106;2023-05-10T14:25:44;283.83;;;226.63;;
10633;SDS011;5365;51.640;8.106;2023-05-10T14:28:44;298.00;;;246.63;;
10633;SDS011;5365;51.640;8.106;2023-05-10T14:31:45;300.27;;;253.77;;
10633;SDS011;5365;51.640;8.106;2023-05-10T14:34:45;339.87;;;305.07;;
10633;SDS011;5365;51.640;8.106;2023-05-10T14:37:45;323.37;;;289.23;;
10633;SDS011;5365;51.640;8.106;2023-05-10T14:40:45;390.50;;;353.47;;
10633;SDS011;5365;51.640;8.106;2023-05-10T14:43:46;404.13;;;367.17;;
10633;SDS011;5365;51.640;8.106;2023-05-10T14:46:46;380.50;;;344.03;;
10633;SDS011;5365;51.640;8.106;2023-05-10T14:49:47;476.73;;;438.13;;
10633;SDS011;5365;51.640;8.106;2023-05-10T14:52:47;445.57;;;407.40;;
10633;SDS011;5365;51.640;8.106;2023-05-10T14:55:47;444.17;;;406.63;;
10633;SDS011;5365;51.640;8.106;2023-05-10T14:58:49;456.80;;;419.00;;
10633;SDS011;5365;51.640;8.106;2023-05-10T15:01:49;482.73;;;444.20;;
10633;SDS011;5365;51.640;8.106;2023-05-10T15:04:50;474.10;;;435.33;;
10633;SDS011;5365;51.640;8.106;2023-05-10T15:07:50;424.50;;;387.30;;
10633;SDS011;5365;51.640;8.106;2023-05-10T15:10:51;403.25;;;366.33;;
10633;SDS011;5365;51.640;8.106;2023-05-10T15:13:51;366.47;;;330.87;;
10633;SDS011;5365;51.640;8.106;2023-05-10T15:16:51;334.53;;;300.40;;
10633;SDS011;5365;51.640;8.106;2023-05-10T15:19:52;294.60;;;255.40;;
10633;SDS011;5365;51.640;8.106;2023-05-10T15:22:52;311.77;;;278.27;;
10633;SDS011;5365;51.640;8.106;2023-05-10T15:25:52;295.13;;;257.57;;
10633;SDS011;5365;51.640;8.106;2023-05-10T15:28:55;335.50;;;300.97;;
10633;SDS011;5365;51.640;8.106;2023-05-10T15:31:55;535.47;;;495.17;;
10633;SDS011;5365;51.640;8.106;2023-05-10T15:34:55;547.67;;;506.90;;
10633;SDS011;5365;51.640;8.106;2023-05-10T15:37:56;459.43;;;420.87;;
10633;SDS011;5365;51.640;8.106;2023-05-10T15:40:56;521.73;;;481.50;;
10633;SDS011;5365;51.640;8.106;2023-05-10T15:43:58;515.47;;;476.13;;
10633;SDS011;5365;51.640;8.106;2023-05-10T15:47:01;584.07;;;542.57;;
10633;SDS011;5365;51.640;8.106;2023-05-10T15:50:02;537.03;;;497.13;;
10633;SDS011;5365;51.640;8.106;2023-05-10T15:53:02;572.37;;;531.27;;
10633;SDS011;5365;51.640;8.106;2023-05-10T15:56:03;576.07;;;534.97;;
10633;SDS011;5365;51.640;8.106;2023-05-10T15:59:03;600.97;;;559.13;;
10633;SDS011;5365;51.640;8.106;2023-05-10T16:02:05;565.43;;;524.60;;
10633;SDS011;5365;51.640;8.106;2023-05-10T16:05:05;586.63;;;545.40;;
10633;SDS011;5365;51.640;8.106;2023-05-10T16:08:06;573.03;;;532.23;;
10633;SDS011;5365;51.640;8.106;2023-05-10T16:11:06;540.63;;;500.40;;
10633;SDS011;5365;51.640;8.106;2023-05-10T16:14:06;539.00;;;498.73;;
10633;SDS011;5365;51.640;8.106;2023-05-10T16:17:07;465.83;;;426.80;;
10633;SDS011;5365;51.640;8.106;2023-05-10T16:20:07;449.03;;;410.70;;
10633;SDS011;5365;51.640;8.106;2023-05-10T16:23:07;392.17;;;355.27;;
10633;SDS011;5365;51.640;8.106;2023-05-10T16:26:07;406.70;;;369.40;;
10633;SDS011;5365;51.640;8.106;2023-05-10T16:29:08;401.77;;;364.33;;
10633;SDS011;5365;51.640;8.106;2023-05-10T16:32:08;407.87;;;370.93;;
10633;SDS011;5365;51.640;8.106;2023-05-10T16:35:08;454.77;;;416.03;;
10633;SDS011;5365;51.640;8.106;2023-05-10T16:38:08;457.97;;;419.33;;
10633;SDS011;5365;51.640;8.106;2023-05-10T16:41:09;502.60;;;462.50;;
10633;SDS011;5365;51.640;8.106;2023-05-10T16:44:09;462.43;;;423.83;;
10633;SDS011;5365;51.640;8.106;2023-05-10T16:47:09;461.47;;;423.03;;
10633;SDS011;5365;51.640;8.106;2023-05-10T16:50:10;485.80;;;446.65;;
10633;SDS011;5365;51.640;8.106;2023-05-10T16:53:10;304.67;;;267.70;;
10633;SDS011;5365;51.640;8.106;2023-05-10T16:56:10;434.43;;;396.23;;
10633;SDS011;5365;51.640;8.106;2023-05-10T16:59:10;502.30;;;462.83;;
10633;SDS011;5365;51.640;8.106;2023-05-10T17:02:11;482.87;;;443.60;;
10633;SDS011;5365;51.640;8.106;2023-05-10T17:05:11;473.53;;;434.67;;
10633;SDS011;5365;51.640;8.106;2023-05-10T17:08:11;419.23;;;380.90;;
10633;SDS011;5365;51.640;8.106;2023-05-10T17:11:11;459.20;;;420.70;;
10633;SDS011;5365;51.640;8.106;2023-05-10T17:14:12;381.60;;;344.80;;
10633;SDS011;5365;51.640;8.106;2023-05-10T17:17:12;342.70;;;306.67;;
10633;SDS011;5365;51.640;8.106;2023-05-10T17:20:12;316.53;;;281.77;;
10633;SDS011;5365;51.640;8.106;2023-05-10T17:23:12;283.77;;;195.57;;
10633;SDS011;5365;51.640;8.106;2023-05-10T17:26:13;271.23;;;175.67;;
10633;SDS011;5365;51.640;8.106;2023-05-10T17:29:13;268.33;;;166.50;;
10633;SDS011;5365;51.640;8.106;2023-05-10T17:32:13;259.37;;;153.17;;
10633;SDS011;5365;51.640;8.106;2023-05-10T17:35:13;257.10;;;153.40;;
10633;SDS011;5365;51.640;8.106;2023-05-10T17:38:14;259.43;;;164.53;;
10633;SDS011;5365;51.640;8.106;2023-05-10T17:41:14;263.03;;;158.80;;
10633;SDS011;5365;51.640;8.106;2023-05-10T17:44:14;281.83;;;173.00;;
10633;SDS011;5365;51.640;8.106;2023-05-10T17:47:14;278.47;;;188.33;;
10633;SDS011;5365;51.640;8.106;2023-05-10T17:50:14;377.67;;;341.40;;
10633;SDS011;5365;51.640;8.106;2023-05-10T17:53:15;369.60;;;333.47;;
10633;SDS011;5365;51.640;8.106;2023-05-10T17:56:15;353.23;;;317.97;;
10633;SDS011;5365;51.640;8.106;2023-05-10T17:59:15;301.37;;;234.23;;